createdAt,value
2024-03-25T00:01:06.819Z,981
2024-03-25T00:01:59.263Z,980.8
2024-03-25T00:02:59.266Z,981
2024-03-25T00:03:59.262Z,980.6
2024-03-25T00:04:59.289Z,980.6
2024-03-25T00:05:59.260Z,980.6
2024-03-25T00:06:59.276Z,980.6
2024-03-25T00:07:59.263Z,980.4
2024-03-25T00:08:59.269Z,980.4
2024-03-25T00:09:59.264Z,980.1
2024-03-25T00:10:59.260Z,980.4
2024-03-25T00:11:59.260Z,980.6
2024-03-25T00:12:59.263Z,980.4
2024-03-25T00:13:59.272Z,980.1
2024-03-25T00:14:59.266Z,980.1
2024-03-25T00:15:59.262Z,980.1
2024-03-25T00:16:59.271Z,980.4
2024-03-25T00:17:59.269Z,980.1
2024-03-25T00:18:59.259Z,980.1
2024-03-25T00:19:59.272Z,980.1
2024-03-25T00:20:59.260Z,979.9
2024-03-25T00:21:59.263Z,980.1
2024-03-25T00:22:59.269Z,980.1
2024-03-25T00:23:59.257Z,980.6
2024-03-25T00:24:59.298Z,980.1
2024-03-25T00:26:06.915Z,980.4
2024-03-25T00:26:59.263Z,980.1
2024-03-25T00:27:59.262Z,980.1
2024-03-25T00:29:08.756Z,980.6
2024-03-25T00:29:59.306Z,981
2024-03-25T00:30:59.259Z,981
2024-03-25T00:31:59.257Z,981
2024-03-25T00:32:59.260Z,980.8
2024-03-25T00:33:59.262Z,980.8
2024-03-25T00:34:59.284Z,980.6
2024-03-25T00:36:01.127Z,980.6
2024-03-25T00:36:59.270Z,980.6
2024-03-25T00:37:59.265Z,980.4
2024-03-25T00:39:03.031Z,980.1
2024-03-25T00:39:59.267Z,980.6
2024-03-25T00:40:59.285Z,980.6
2024-03-25T00:42:04.235Z,980.6
2024-03-25T00:42:59.277Z,980.1
2024-03-25T00:43:59.284Z,980.6
2024-03-25T00:44:59.353Z,980.6
2024-03-25T00:45:59.272Z,980.1
2024-03-25T00:46:59.261Z,979.9
2024-03-25T00:47:59.262Z,980.1
2024-03-25T00:48:59.259Z,980.1
2024-03-25T00:49:59.270Z,980.1
2024-03-25T00:50:59.262Z,980.1
2024-03-25T00:52:59.268Z,980.4
2024-03-25T00:53:59.259Z,980.4
2024-03-25T00:54:59.259Z,980.4
2024-03-25T00:55:59.260Z,980.6
2024-03-25T00:56:59.258Z,980.6
2024-03-25T00:57:59.258Z,980.6
2024-03-25T00:58:59.262Z,980.6
2024-03-25T00:59:59.275Z,980.6
2024-03-25T01:00:59.261Z,980.6
2024-03-25T01:01:59.263Z,980.6
2024-03-25T01:02:59.260Z,980.6
2024-03-25T01:03:59.263Z,980.6
2024-03-25T01:04:59.264Z,980.6
2024-03-25T01:05:59.265Z,980.8
2024-03-25T01:06:59.261Z,981
2024-03-25T01:07:59.260Z,980.8
2024-03-25T01:08:59.266Z,980.6
2024-03-25T01:09:59.265Z,980.6
2024-03-25T01:10:59.262Z,980.8
2024-03-25T01:11:59.262Z,980.6
2024-03-25T01:12:59.264Z,980.6
2024-03-25T01:13:59.281Z,980.6
2024-03-25T01:14:59.259Z,980.6
2024-03-25T01:15:59.259Z,980.6
2024-03-25T01:16:59.267Z,980.6
2024-03-25T01:17:59.276Z,980.6
2024-03-25T01:18:59.265Z,980.6
2024-03-25T01:19:59.265Z,980.8
2024-03-25T01:20:59.570Z,980.8
2024-03-25T01:21:59.268Z,981
2024-03-25T01:22:59.284Z,980.6
2024-03-25T01:23:59.259Z,981
2024-03-25T01:24:59.290Z,981.4
2024-03-25T01:25:59.255Z,981.4
2024-03-25T01:26:59.294Z,981.4
2024-03-25T01:27:59.269Z,981.4
2024-03-25T01:28:59.293Z,981.9
2024-03-25T01:29:59.275Z,981.9
2024-03-25T01:30:59.261Z,981.9
2024-03-25T01:31:59.289Z,981.9
2024-03-25T01:32:59.261Z,981.9
2024-03-25T01:33:59.261Z,981.9
2024-03-25T01:34:59.374Z,981.7
2024-03-25T01:35:59.293Z,981.9
2024-03-25T01:36:59.263Z,981.9
2024-03-25T01:37:59.267Z,981.4
2024-03-25T01:38:59.268Z,981.4
2024-03-25T01:39:59.601Z,981.4
2024-03-25T01:40:59.286Z,981.4
2024-03-25T01:41:59.266Z,981.4
2024-03-25T01:42:59.266Z,981.2
2024-03-25T01:44:07.274Z,981.4
2024-03-25T01:44:59.264Z,981.4
2024-03-25T01:45:59.260Z,981.9
2024-03-25T01:46:59.268Z,981.9
2024-03-25T01:47:59.281Z,981.9
2024-03-25T01:48:59.271Z,981.9
2024-03-25T01:49:59.307Z,981.9
2024-03-25T01:50:59.270Z,982.3
2024-03-25T01:51:59.267Z,982.3
2024-03-25T01:52:59.308Z,982.3
2024-03-25T01:53:59.263Z,982.3
2024-03-25T01:54:59.270Z,982.3
2024-03-25T01:55:59.281Z,982.3
2024-03-25T01:56:59.293Z,982.3
2024-03-25T01:57:59.261Z,982.3
2024-03-25T01:58:59.315Z,982.3
2024-03-25T01:59:59.268Z,982.3
2024-03-25T02:00:59.272Z,982.3
2024-03-25T02:01:59.288Z,982.3
2024-03-25T02:02:59.288Z,982.5
2024-03-25T02:03:59.266Z,982.7
2024-03-25T02:05:06.069Z,982.5
2024-03-25T02:05:59.266Z,982.5
2024-03-25T02:06:59.267Z,982.5
2024-03-25T02:07:59.300Z,982.7
2024-03-25T02:08:59.264Z,982.5
2024-03-25T02:09:59.269Z,982.7
2024-03-25T02:10:59.267Z,982.7
2024-03-25T02:12:08.893Z,982.7
2024-03-25T02:12:59.288Z,982.7
2024-03-25T02:13:59.298Z,982.7
2024-03-25T02:14:59.270Z,983
2024-03-25T02:15:59.268Z,983.2
2024-03-25T02:16:59.301Z,983
2024-03-25T02:17:59.261Z,983
2024-03-25T02:18:59.269Z,982.7
2024-03-25T02:19:59.297Z,982.3
2024-03-25T02:20:59.288Z,982.3
2024-03-25T02:21:59.276Z,982.1
2024-03-25T02:22:59.315Z,982.1
2024-03-25T02:23:59.268Z,981.9
2024-03-25T02:24:59.277Z,981.9
2024-03-25T02:25:59.359Z,981.4
2024-03-25T02:27:03.643Z,981.9
2024-03-25T02:27:59.268Z,981.9
2024-03-25T02:28:59.285Z,982.1
2024-03-25T02:30:04.588Z,982.3
2024-03-25T02:30:59.285Z,981.9
2024-03-25T02:31:59.301Z,981.7
2024-03-25T02:32:59.279Z,981.9
2024-03-25T02:33:59.268Z,981.9
2024-03-25T02:34:59.318Z,982.3
2024-03-25T02:35:59.268Z,982.3
2024-03-25T02:36:59.267Z,982.3
2024-03-25T02:37:59.288Z,982.3
2024-03-25T02:38:59.272Z,982.3
2024-03-25T02:39:59.289Z,982.3
2024-03-25T02:40:59.310Z,982.3
2024-03-25T02:41:59.279Z,982.3
2024-03-25T02:42:59.273Z,982.3
2024-03-25T02:43:59.302Z,982.5
2024-03-25T02:44:59.284Z,982.5
2024-03-25T02:45:59.271Z,982.7
2024-03-25T02:46:59.332Z,982.7
2024-03-25T02:47:59.287Z,983.2
2024-03-25T02:48:59.276Z,983
2024-03-25T02:49:59.334Z,983.2
2024-03-25T02:50:59.298Z,983
2024-03-25T02:51:59.270Z,983.2
2024-03-25T02:52:59.304Z,983.2
2024-03-25T02:53:59.278Z,983.4
2024-03-25T02:54:59.275Z,983.4
2024-03-25T02:55:59.303Z,983.2
2024-03-25T02:56:59.267Z,983.2
2024-03-25T02:57:59.274Z,983.2
2024-03-25T02:58:59.297Z,983
2024-03-25T03:00:00.406Z,983.2
2024-03-25T03:00:59.108Z,983.2
2024-03-25T03:01:59.291Z,983.2
2024-03-25T03:02:59.271Z,983.2
2024-03-25T03:03:59.264Z,983.2
2024-03-25T03:04:59.279Z,983.2
2024-03-25T03:05:59.305Z,983.2
2024-03-25T03:06:59.267Z,983.2
2024-03-25T03:07:59.275Z,983.2
2024-03-25T03:08:59.334Z,983.2
2024-03-25T03:09:59.319Z,983.2
2024-03-25T03:10:59.332Z,983.2
2024-03-25T03:11:59.320Z,983.2
2024-03-25T03:12:59.270Z,983.2
2024-03-25T03:13:59.298Z,983.4
2024-03-25T03:14:59.268Z,983.6
2024-03-25T03:15:59.292Z,983.6
2024-03-25T03:16:59.267Z,983.6
2024-03-25T03:17:59.269Z,983.6
2024-03-25T03:18:59.276Z,983.6
2024-03-25T03:19:59.287Z,983.6
2024-03-25T03:20:59.272Z,983.6
2024-03-25T03:21:59.273Z,983.6
2024-03-25T03:22:59.279Z,983.6
2024-03-25T03:23:59.277Z,983.6
2024-03-25T03:24:59.272Z,983.6
2024-03-25T03:25:59.291Z,983.4
2024-03-25T03:26:59.280Z,983.2
2024-03-25T03:27:59.267Z,983.2
2024-03-25T03:28:59.398Z,983.2
2024-03-25T03:29:59.287Z,983.4
2024-03-25T03:30:59.277Z,983.6
2024-03-25T03:31:59.296Z,983.6
2024-03-25T03:32:59.283Z,983.6
2024-03-25T03:33:59.269Z,983.6
2024-03-25T03:34:59.329Z,983.4
2024-03-25T03:35:59.276Z,983.6
2024-03-25T03:36:59.274Z,983.6
2024-03-25T03:37:59.287Z,983.6
2024-03-25T03:38:59.274Z,983.4
2024-03-25T03:39:59.297Z,983.4
2024-03-25T03:40:59.547Z,983.4
2024-03-25T03:41:59.284Z,983.4
2024-03-25T03:42:59.284Z,983.4
2024-03-25T03:43:59.331Z,983.6
2024-03-25T03:44:59.280Z,983.6
2024-03-25T03:45:59.276Z,983.2
2024-03-25T03:46:59.277Z,983.2
2024-03-25T03:47:59.276Z,983.2
2024-03-25T03:48:59.281Z,982.7
2024-03-25T03:49:59.352Z,982.7
2024-03-25T03:50:59.275Z,982.7
2024-03-25T03:51:59.269Z,983
2024-03-25T03:52:59.294Z,983.2
2024-03-25T03:53:59.274Z,982.7
2024-03-25T03:54:59.281Z,982.7
2024-03-25T03:55:59.284Z,983
2024-03-25T03:56:59.269Z,983
2024-03-25T03:57:59.269Z,983
2024-03-25T03:58:59.290Z,983
2024-03-25T03:59:59.287Z,982.7
2024-03-25T04:00:59.266Z,982.7
2024-03-25T04:01:59.293Z,982.7
2024-03-25T04:02:59.274Z,982.7
2024-03-25T04:03:59.278Z,982.7
2024-03-25T04:04:59.282Z,982.7
2024-03-25T04:05:59.272Z,982.3
2024-03-25T04:06:59.278Z,982.1
2024-03-25T04:07:59.282Z,982.1
2024-03-25T04:08:59.274Z,982.3
2024-03-25T04:09:59.284Z,982.3
2024-03-25T04:10:59.272Z,982.3
2024-03-25T04:11:59.268Z,982.1
2024-03-25T04:12:59.267Z,982.1
2024-03-25T04:13:59.295Z,982.1
2024-03-25T04:14:59.272Z,981.9
2024-03-25T04:15:59.272Z,981.9
2024-03-25T04:16:59.277Z,981.9
2024-03-25T04:17:59.288Z,982.3
2024-03-25T04:18:59.280Z,982.5
2024-03-25T04:19:59.284Z,982.5
2024-03-25T04:20:59.294Z,982.3
2024-03-25T04:21:59.269Z,982.1
2024-03-25T04:22:59.294Z,982.3
2024-03-25T04:23:59.263Z,982.3
2024-03-25T04:24:59.267Z,981.9
2024-03-25T04:25:59.302Z,981.9
2024-03-25T04:26:59.294Z,981.9
2024-03-25T04:27:59.285Z,981.9
2024-03-25T04:28:59.316Z,981.9
2024-03-25T04:29:59.277Z,981.9
2024-03-25T04:30:59.268Z,981.4
2024-03-25T04:31:59.277Z,981.4
2024-03-25T04:32:59.274Z,981.7
2024-03-25T04:33:59.274Z,981.7
2024-03-25T04:34:59.298Z,981.4
2024-03-25T04:35:59.286Z,981.4
2024-03-25T04:36:59.282Z,981.4
2024-03-25T04:37:59.286Z,981.4
2024-03-25T04:38:59.294Z,981.4
2024-03-25T04:39:59.297Z,981.4
2024-03-25T04:40:59.293Z,981.4
2024-03-25T04:41:59.266Z,981.4
2024-03-25T04:42:59.312Z,981.4
2024-03-25T04:43:59.278Z,981.4
2024-03-25T04:44:59.272Z,981.4
2024-03-25T04:45:59.267Z,981.4
2024-03-25T04:46:59.281Z,981.4
2024-03-25T04:47:59.331Z,981.4
2024-03-25T04:48:59.271Z,981.4
2024-03-25T04:49:59.285Z,981.4
2024-03-25T04:50:59.267Z,981.4
2024-03-25T04:51:59.268Z,981.4
2024-03-25T04:52:59.282Z,981.4
2024-03-25T04:53:59.268Z,981.4
2024-03-25T04:54:59.274Z,981.4
2024-03-25T04:55:59.264Z,981.4
2024-03-25T04:56:59.287Z,981.7
2024-03-25T04:57:59.271Z,981.4
2024-03-25T04:59:02.324Z,981.7
2024-03-25T04:59:59.276Z,981.4
2024-03-25T05:00:59.273Z,981.4
2024-03-25T05:01:59.296Z,981.2
2024-03-25T05:02:59.268Z,981.4
2024-03-25T05:03:59.973Z,981.4
2024-03-25T05:04:59.286Z,981.7
2024-03-25T05:05:59.270Z,981.4
2024-03-25T05:06:59.273Z,981.4
2024-03-25T05:07:59.275Z,981.4
2024-03-25T05:08:59.272Z,981.4
2024-03-25T05:09:59.282Z,981.4
2024-03-25T05:10:59.300Z,981.4
2024-03-25T05:11:59.266Z,981.2
2024-03-25T05:12:59.290Z,981.4
2024-03-25T05:13:59.273Z,981.4
2024-03-25T05:14:59.309Z,981.4
2024-03-25T05:15:59.267Z,981.4
2024-03-25T05:16:59.283Z,981.4
2024-03-25T05:17:59.264Z,981.7
2024-03-25T05:18:59.274Z,981.4
2024-03-25T05:19:59.325Z,981.4
2024-03-25T05:20:59.269Z,981.7
2024-03-25T05:21:59.268Z,981.7
2024-03-25T05:22:59.293Z,981.7
2024-03-25T05:23:59.278Z,981.9
2024-03-25T05:24:59.281Z,981.9
2024-03-25T05:25:59.268Z,982.1
2024-03-25T05:26:59.277Z,982.3
2024-03-25T05:27:59.274Z,982.3
2024-03-25T05:28:59.274Z,982.3
2024-03-25T05:29:59.278Z,982.1
2024-03-25T05:30:59.276Z,982.1
2024-03-25T05:31:59.329Z,982.1
2024-03-25T05:32:59.274Z,982.1
2024-03-25T05:33:59.277Z,981.9
2024-03-25T05:34:59.297Z,981.9
2024-03-25T05:36:05.403Z,981.9
2024-03-25T05:36:59.352Z,981.9
2024-03-25T05:37:59.278Z,982.3
2024-03-25T05:38:59.272Z,982.3
2024-03-25T05:39:59.273Z,982.3
2024-03-25T05:40:59.284Z,982.3
2024-03-25T05:41:59.276Z,982.1
2024-03-25T05:42:59.277Z,981.9
2024-03-25T05:43:59.266Z,982.1
2024-03-25T05:44:59.273Z,982.3
2024-03-25T05:45:59.261Z,982.3
2024-03-25T05:46:59.267Z,982.1
2024-03-25T05:47:59.271Z,981.9
2024-03-25T05:48:59.268Z,981.9
2024-03-25T05:49:59.307Z,981.9
2024-03-25T05:50:59.264Z,981.9
2024-03-25T05:51:59.297Z,981.9
2024-03-25T05:52:59.283Z,981.9
2024-03-25T05:53:59.282Z,981.9
2024-03-25T05:54:59.267Z,981.7
2024-03-25T05:55:59.268Z,981.4
2024-03-25T05:56:59.269Z,981.7
2024-03-25T05:57:59.262Z,981.4
2024-03-25T05:58:59.291Z,981.4
2024-03-25T05:59:59.286Z,981.4
2024-03-25T06:00:59.285Z,981.9
2024-03-25T06:01:59.316Z,981.9
2024-03-25T06:02:59.279Z,982.1
2024-03-25T06:03:59.266Z,982.1
2024-03-25T06:04:59.282Z,982.1
2024-03-25T06:05:59.265Z,981.9
2024-03-25T06:06:59.273Z,981.9
2024-03-25T06:07:59.266Z,981.7
2024-03-25T06:08:59.261Z,981.4
2024-03-25T06:09:59.270Z,981.2
2024-03-25T06:10:59.265Z,981
2024-03-25T06:11:59.282Z,981
2024-03-25T06:12:59.289Z,981
2024-03-25T06:13:59.280Z,980.6
2024-03-25T06:14:59.296Z,980.4
2024-03-25T06:15:59.273Z,980.1
2024-03-25T06:16:59.294Z,980.1
2024-03-25T06:17:59.283Z,980.1
2024-03-25T06:18:59.270Z,980.1
2024-03-25T06:19:59.286Z,979.9
2024-03-25T06:20:59.319Z,980.1
2024-03-25T06:21:59.302Z,980.1
2024-03-25T06:22:59.278Z,979.9
2024-03-25T06:23:59.272Z,980.1
2024-03-25T06:24:59.275Z,979.9
2024-03-25T06:25:59.274Z,979.9
2024-03-25T06:26:59.283Z,979.7
2024-03-25T06:27:59.276Z,979.7
2024-03-25T06:28:59.292Z,979.7
2024-03-25T06:29:59.283Z,979.5
2024-03-25T06:30:59.297Z,979.3
2024-03-25T06:31:59.265Z,979.7
2024-03-25T06:32:59.306Z,979.7
2024-03-25T06:33:59.275Z,979.5
2024-03-25T06:34:59.320Z,979.7
2024-03-25T06:35:59.270Z,979.7
2024-03-25T06:36:59.266Z,979.5
2024-03-25T06:37:59.287Z,979.3
2024-03-25T06:38:59.309Z,979.5
2024-03-25T06:39:59.288Z,979.5
2024-03-25T06:40:59.266Z,979.3
2024-03-25T06:42:09.694Z,979.3
2024-03-25T06:42:59.274Z,979
2024-03-25T06:43:59.310Z,979.3
2024-03-25T06:44:59.285Z,979.3
2024-03-25T06:45:59.293Z,979
2024-03-25T06:46:59.275Z,979.3
2024-03-25T06:47:59.278Z,979.3
2024-03-25T06:48:59.277Z,979.3
2024-03-25T06:49:59.286Z,978.8
2024-03-25T06:50:59.279Z,978.8
2024-03-25T06:51:59.276Z,978.8
2024-03-25T06:52:59.269Z,979.3
2024-03-25T06:53:59.299Z,978.8
2024-03-25T06:54:59.274Z,978.4
2024-03-25T06:55:59.444Z,978.2
2024-03-25T06:56:59.273Z,978
2024-03-25T06:57:59.273Z,978
2024-03-25T06:58:59.314Z,978.4
2024-03-25T07:00:00.553Z,978.4
2024-03-25T07:00:59.267Z,978.8
2024-03-25T07:01:59.276Z,979.3
2024-03-25T07:02:59.324Z,979.3
2024-03-25T07:03:59.274Z,979
2024-03-25T07:04:59.301Z,979.3
2024-03-25T07:05:59.264Z,979
2024-03-25T07:06:59.271Z,978.8
2024-03-25T07:07:59.267Z,979.3
2024-03-25T07:08:59.273Z,979.5
2024-03-25T07:09:59.284Z,979.7
2024-03-25T07:10:59.276Z,979.9
2024-03-25T07:11:59.286Z,980.4
2024-03-25T07:12:59.268Z,980.4
2024-03-25T07:14:01.585Z,980.4
2024-03-25T07:14:59.281Z,980.1
2024-03-25T07:15:59.267Z,980.1
2024-03-25T07:16:59.267Z,980.1
2024-03-25T07:17:59.301Z,980.1
2024-03-25T07:18:59.261Z,979.7
2024-03-25T07:19:59.298Z,979.7
2024-03-25T07:20:59.274Z,979.7
2024-03-25T07:21:59.263Z,979.5
2024-03-25T07:22:59.285Z,979
2024-03-25T07:23:59.289Z,978.4
2024-03-25T07:24:59.269Z,978.8
2024-03-25T07:25:59.269Z,978.6
2024-03-25T07:26:59.274Z,978.6
2024-03-25T07:27:59.262Z,978.4
2024-03-25T07:28:59.277Z,978.4
2024-03-25T07:29:59.289Z,978.8
2024-03-25T07:30:59.270Z,979.3
2024-03-25T07:31:59.277Z,979
2024-03-25T07:32:59.266Z,978.8
2024-03-25T07:33:59.295Z,978.8
2024-03-25T07:34:59.290Z,978.8
2024-03-25T07:35:59.266Z,978.6
2024-03-25T07:36:59.326Z,978.4
2024-03-25T07:37:59.283Z,978
2024-03-25T07:38:59.289Z,978
2024-03-25T07:39:59.320Z,977.5
2024-03-25T07:40:59.289Z,977.5
2024-03-25T07:41:59.274Z,977.5
2024-03-25T07:42:59.278Z,976.9
2024-03-25T07:43:59.292Z,976.7
2024-03-25T07:44:59.276Z,977.3
2024-03-25T07:45:59.263Z,977.7
2024-03-25T07:46:59.264Z,977.7
2024-03-25T07:47:59.267Z,978
2024-03-25T07:48:59.265Z,978.2
2024-03-25T07:49:59.276Z,978.2
2024-03-25T07:50:59.266Z,978.4
2024-03-25T07:51:59.263Z,978.4
2024-03-25T07:52:59.269Z,978.8
2024-03-25T07:53:59.258Z,978.8
2024-03-25T07:54:59.268Z,979.5
2024-03-25T07:55:59.260Z,979.7
2024-03-25T07:56:59.249Z,979.5
2024-03-25T07:57:59.287Z,979
2024-03-25T07:58:59.263Z,978.4
2024-03-25T07:59:59.300Z,978.6
2024-03-25T08:00:59.278Z,978.8
2024-03-25T08:01:59.336Z,978.8
2024-03-25T08:02:59.345Z,978.4
2024-03-25T08:03:59.274Z,978.2
2024-03-25T08:04:59.311Z,978
2024-03-25T08:05:59.261Z,978
2024-03-25T08:06:59.271Z,978
2024-03-25T08:07:59.280Z,978
2024-03-25T08:08:59.265Z,978
2024-03-25T08:09:59.310Z,978
2024-03-25T08:10:59.328Z,977.5
2024-03-25T08:11:59.272Z,977.1
2024-03-25T08:12:59.296Z,977.5
2024-03-25T08:13:59.275Z,977.5
2024-03-25T08:14:59.299Z,977.5
2024-03-25T08:15:59.270Z,977.1
2024-03-25T08:16:59.314Z,977.1
2024-03-25T08:17:59.291Z,977.1
2024-03-25T08:18:59.265Z,977.1
2024-03-25T08:19:59.263Z,977.1
2024-03-25T08:20:59.457Z,977.1
2024-03-25T08:21:59.273Z,976.7
2024-03-25T08:22:59.289Z,976.7
2024-03-25T08:24:04.876Z,976.7
2024-03-25T08:24:59.266Z,976.4
2024-03-25T08:25:59.283Z,976
2024-03-25T08:26:59.260Z,976.2
2024-03-25T08:27:59.275Z,976.7
2024-03-25T08:28:59.320Z,976.7
2024-03-25T08:29:59.269Z,975.8
2024-03-25T08:30:59.271Z,975.8
2024-03-25T08:31:59.270Z,976.2
2024-03-25T08:32:59.319Z,976.7
2024-03-25T08:33:59.261Z,976.7
2024-03-25T08:34:59.301Z,976.2
2024-03-25T08:35:59.284Z,976.2
2024-03-25T08:36:59.265Z,975.8
2024-03-25T08:37:59.260Z,976
2024-03-25T08:38:59.269Z,975.8
2024-03-25T08:39:59.347Z,975.8
2024-03-25T08:40:59.331Z,975.4
2024-03-25T08:41:59.271Z,975.8
2024-03-25T08:42:59.580Z,975.1
2024-03-25T08:43:59.327Z,975.4
2024-03-25T08:44:59.268Z,975.6
2024-03-25T08:45:59.263Z,975.1
2024-03-25T08:46:59.280Z,974.9
2024-03-25T08:47:59.325Z,974.9
2024-03-25T08:49:03.567Z,974.7
2024-03-25T08:49:59.270Z,974
2024-03-25T08:50:59.268Z,974.5
2024-03-25T08:52:04.983Z,973.6
2024-03-25T08:52:59.274Z,973.2
2024-03-25T08:53:59.957Z,973.6
2024-03-25T08:55:05.786Z,973.2
2024-03-25T08:55:59.271Z,973
2024-03-25T08:56:59.273Z,973.2
2024-03-25T08:57:59.365Z,973.6
2024-03-25T08:58:59.283Z,974.5
2024-03-25T08:59:59.277Z,974.7
2024-03-25T09:00:59.268Z,974.5
2024-03-25T09:01:59.273Z,974.9
2024-03-25T09:02:59.278Z,974.5
2024-03-25T09:03:59.259Z,974.9
2024-03-25T09:04:59.289Z,974.9
2024-03-25T09:05:59.306Z,974.9
2024-03-25T09:06:59.334Z,974.5
2024-03-25T09:07:59.316Z,974.5
2024-03-25T09:08:59.273Z,974
2024-03-25T09:09:59.281Z,973.6
2024-03-25T09:10:59.294Z,973.6
2024-03-25T09:11:59.317Z,974.3
2024-03-25T09:12:59.258Z,974.3
2024-03-25T09:13:59.260Z,973.6
2024-03-25T09:14:59.261Z,973.2
2024-03-25T09:15:59.286Z,973.4
2024-03-25T09:16:59.262Z,973.2
2024-03-25T09:17:59.338Z,972.7
2024-03-25T09:18:59.266Z,971.9
2024-03-25T09:19:59.285Z,971.4
2024-03-25T09:20:59.314Z,971.4
2024-03-25T09:21:59.260Z,972.1
2024-03-25T09:22:59.323Z,972.7
2024-03-25T09:23:59.309Z,972.3
2024-03-25T09:24:59.265Z,971.9
2024-03-25T09:25:59.263Z,971.7
2024-03-25T09:26:59.265Z,971.9
2024-03-25T09:27:59.304Z,972.7
2024-03-25T09:28:59.279Z,972.7
2024-03-25T09:29:59.274Z,971.2
2024-03-25T09:30:59.275Z,970.8
2024-03-25T09:31:59.269Z,971.4
2024-03-25T09:32:59.266Z,971.9
2024-03-25T09:33:59.270Z,971.9
2024-03-25T09:35:00.113Z,972.3
2024-03-25T09:35:59.268Z,971.7
2024-03-25T09:36:59.268Z,972.1
2024-03-25T09:37:59.397Z,972.3
2024-03-25T09:38:59.311Z,973.4
2024-03-25T09:39:59.328Z,973.2
2024-03-25T09:40:59.296Z,973.6
2024-03-25T09:41:59.293Z,973.6
2024-03-25T09:42:59.274Z,973.6
2024-03-25T09:43:59.290Z,973.6
2024-03-25T09:44:59.340Z,973.6
2024-03-25T09:45:59.279Z,973.2
2024-03-25T09:46:59.277Z,973.4
2024-03-25T09:47:59.301Z,973.2
2024-03-25T09:48:59.283Z,973.2
2024-03-25T09:49:59.299Z,972.3
2024-03-25T09:51:00.815Z,972.3
2024-03-25T09:51:59.277Z,972.7
2024-03-25T09:52:59.296Z,972.3
2024-03-25T09:53:59.265Z,973
2024-03-25T09:54:59.269Z,972.7
2024-03-25T09:55:59.275Z,973.4
2024-03-25T09:56:59.273Z,972.5
2024-03-25T09:57:59.327Z,971.4
2024-03-25T09:58:59.270Z,972.1
2024-03-25T09:59:59.391Z,972.3
2024-03-25T10:00:59.360Z,970.6
2024-03-25T10:01:59.281Z,969.7
2024-03-25T10:02:59.266Z,969.7
2024-03-25T10:03:59.292Z,969.9
2024-03-25T10:04:59.284Z,969.3
2024-03-25T10:05:59.269Z,970.1
2024-03-25T10:06:59.293Z,969.5
2024-03-25T10:07:59.264Z,967.7
2024-03-25T10:08:59.302Z,968.4
2024-03-25T10:09:59.279Z,968.4
2024-03-25T10:10:59.280Z,968
2024-03-25T10:12:59.262Z,968.2
2024-03-25T10:13:59.282Z,968.8
2024-03-25T10:14:59.328Z,967.7
2024-03-25T10:15:59.270Z,967.5
2024-03-25T10:16:59.266Z,967.3
2024-03-25T10:17:59.303Z,966.7
2024-03-25T10:18:59.463Z,965.8
2024-03-25T10:19:59.297Z,964.3
2024-03-25T10:20:59.274Z,964
2024-03-25T10:22:05.066Z,963.6
2024-03-25T10:22:59.263Z,964.9
2024-03-25T10:23:59.270Z,965.1
2024-03-25T10:24:59.325Z,965.4
2024-03-25T10:25:59.299Z,964
2024-03-25T10:26:59.267Z,962.7
2024-03-25T10:27:59.285Z,962.5
2024-03-25T10:28:59.261Z,964.7
2024-03-25T10:30:00.019Z,962.7
2024-03-25T10:30:59.275Z,962.7
2024-03-25T10:31:59.477Z,964.3
2024-03-25T10:32:59.348Z,965.1
2024-03-25T10:33:59.262Z,964
2024-03-25T10:34:59.261Z,961.2
2024-03-25T10:35:59.817Z,961.7
2024-03-25T10:36:59.343Z,963.6
2024-03-25T10:37:59.264Z,963.6
2024-03-25T10:38:59.355Z,963.6
2024-03-25T10:39:59.398Z,964
2024-03-25T10:40:59.311Z,963.8
2024-03-25T10:41:59.312Z,964
2024-03-25T10:43:02.103Z,962.1
2024-03-25T10:43:59.515Z,962.3
2024-03-25T10:44:59.268Z,962.7
2024-03-25T10:45:59.267Z,963.2
2024-03-25T10:46:59.350Z,963
2024-03-25T10:47:59.278Z,962.7
2024-03-25T10:48:59.276Z,962.7
2024-03-25T10:50:05.895Z,961.4
2024-03-25T10:50:59.280Z,962.7
2024-03-25T10:51:59.271Z,963.6
2024-03-25T10:52:59.278Z,963.4
2024-03-25T10:53:59.393Z,962.5
2024-03-25T10:54:59.274Z,963.8
2024-03-25T10:55:59.286Z,962.3
2024-03-25T10:56:59.270Z,961
2024-03-25T10:57:59.271Z,962.3
2024-03-25T10:58:59.303Z,961.7
2024-03-25T11:00:02.224Z,962.3
2024-03-25T11:00:59.273Z,961.4
2024-03-25T11:01:59.321Z,961
2024-03-25T11:02:59.272Z,960.4
2024-03-25T11:03:59.284Z,960.6
2024-03-25T11:04:59.268Z,959.3
2024-03-25T11:05:59.269Z,960.1
2024-03-25T11:06:59.307Z,959.7
2024-03-25T11:07:59.355Z,959.3
2024-03-25T11:08:59.399Z,959.9
2024-03-25T11:09:59.342Z,958.4
2024-03-25T11:10:59.285Z,958.8
2024-03-25T11:11:59.268Z,958.6
2024-03-25T11:12:59.308Z,960.6
2024-03-25T11:13:59.321Z,960.6
2024-03-25T11:14:59.273Z,959.7
2024-03-25T11:15:59.273Z,958
2024-03-25T11:16:59.267Z,957.5
2024-03-25T11:17:59.281Z,956.9
2024-03-25T11:18:59.263Z,957.1
2024-03-25T11:19:59.345Z,957.5
2024-03-25T11:20:59.275Z,958.4
2024-03-25T11:21:59.271Z,960.1
2024-03-25T11:22:59.289Z,959.7
2024-03-25T11:23:59.288Z,959.7
2024-03-25T11:24:59.295Z,957.7
2024-03-25T11:25:59.296Z,958.4
2024-03-25T11:26:59.275Z,958
2024-03-25T11:27:59.278Z,957.5
2024-03-25T11:28:59.276Z,958.8
2024-03-25T11:29:59.433Z,958.6
2024-03-25T11:30:59.297Z,958.8
2024-03-25T11:31:59.280Z,956.4
2024-03-25T11:32:59.291Z,955.4
2024-03-25T11:33:59.271Z,954.5
2024-03-25T11:34:59.284Z,953.2
2024-03-25T11:35:59.272Z,953.6
2024-03-25T11:36:59.269Z,954.5
2024-03-25T11:37:59.269Z,957.1
2024-03-25T11:38:59.275Z,956.7
2024-03-25T11:39:59.273Z,955.4
2024-03-25T11:40:59.272Z,957.5
2024-03-25T11:41:59.290Z,958
2024-03-25T11:42:59.271Z,956.4
2024-03-25T11:43:59.270Z,956.2
2024-03-25T11:45:01.219Z,958.4
2024-03-25T11:45:59.286Z,955.1
2024-03-25T11:46:59.282Z,955.6
2024-03-25T11:47:59.267Z,956.4
2024-03-25T11:49:01.145Z,956.7
2024-03-25T11:49:59.275Z,955.4
2024-03-25T11:50:59.273Z,954.5
2024-03-25T11:51:59.313Z,953.6
2024-03-25T11:52:59.268Z,953.6
2024-03-25T11:53:59.270Z,954.5
2024-03-25T11:54:59.268Z,954.3
2024-03-25T11:55:59.269Z,953.6
2024-03-25T11:56:59.272Z,954
2024-03-25T11:57:59.269Z,954.5
2024-03-25T11:58:59.267Z,953.6
2024-03-25T11:59:59.284Z,953.6
2024-03-25T12:00:59.265Z,952.7
2024-03-25T12:01:59.306Z,953.2
2024-03-25T12:02:59.276Z,950.8
2024-03-25T12:03:59.289Z,951.4
2024-03-25T12:04:59.275Z,952.7
2024-03-25T12:05:59.271Z,952.3
2024-03-25T12:07:09.119Z,953.6
2024-03-25T12:07:59.272Z,953.4
2024-03-25T12:09:00.032Z,952.3
2024-03-25T12:10:00.905Z,953
2024-03-25T12:10:59.270Z,954
2024-03-25T12:11:59.267Z,952.7
2024-03-25T12:13:01.030Z,953.2
2024-03-25T12:13:59.848Z,952.7
2024-03-25T12:14:59.270Z,952.3
2024-03-25T12:15:59.273Z,951.2
2024-03-25T12:16:59.270Z,951.9
2024-03-25T12:17:59.290Z,951
2024-03-25T12:18:59.378Z,952.3
2024-03-25T12:19:59.282Z,952.7
2024-03-25T12:20:59.272Z,953.6
2024-03-25T12:22:00.593Z,951.2
2024-03-25T12:22:59.271Z,951.4
2024-03-25T12:23:59.271Z,951.9
2024-03-25T12:24:59.271Z,953.6
2024-03-25T12:25:59.291Z,953.6
2024-03-25T12:26:59.282Z,953.2
2024-03-25T12:27:59.734Z,953.6
2024-03-25T12:28:59.297Z,952.7
2024-03-25T12:29:59.289Z,952.7
2024-03-25T12:30:59.268Z,952.7
2024-03-25T12:31:59.290Z,953
2024-03-25T12:32:59.263Z,952.3
2024-03-25T12:34:00.404Z,953.2
2024-03-25T12:34:59.265Z,953.8
2024-03-25T12:35:59.294Z,953.6
2024-03-25T12:36:59.274Z,953
2024-03-25T12:37:59.267Z,952.3
2024-03-25T12:38:59.317Z,952.5
2024-03-25T12:40:00.284Z,953.2
2024-03-25T12:40:59.270Z,953.2
2024-03-25T12:41:59.287Z,951
2024-03-25T12:42:59.293Z,951.4
2024-03-25T12:43:59.282Z,952.3
2024-03-25T12:44:59.271Z,951.4
2024-03-25T12:46:01.783Z,950.8
2024-03-25T12:46:59.266Z,951.7
2024-03-25T12:47:59.272Z,951
2024-03-25T12:48:59.281Z,952.1
2024-03-25T12:49:59.265Z,952.3
2024-03-25T12:50:59.271Z,951.4
2024-03-25T12:52:00.335Z,951
2024-03-25T12:52:59.269Z,950.8
2024-03-25T12:53:59.269Z,951.2
2024-03-25T12:54:59.267Z,951.4
2024-03-25T12:55:59.282Z,949.5
2024-03-25T12:56:59.279Z,948.8
2024-03-25T12:57:59.265Z,950.6
2024-03-25T12:58:59.288Z,950.6
2024-03-25T12:59:59.267Z,950.6